sensor_id;sensor_type;location;lat;lon;timestamp;P1;durP1;ratioP1;P2;durP2;ratioP2
66189;SDS011;52992;52.084;5.412;2023-08-30T00:01:38;8.30;;;6.53;;
66189;SDS011;52992;52.084;5.412;2023-08-30T00:04:05;8.43;;;6.43;;
66189;SDS011;52992;52.084;5.412;2023-08-30T00:06:32;10.17;;;7.10;;
66189;SDS011;52992;52.084;5.412;2023-08-30T00:08:59;8.80;;;6.47;;
66189;SDS011;52992;52.084;5.412;2023-08-30T00:11:26;12.33;;;7.27;;
66189;SDS011;52992;52.084;5.412;2023-08-30T00:14:01;10.70;;;7.03;;
66189;SDS011;52992;52.084;5.412;2023-08-30T00:16:31;9.40;;;7.27;;
66189;SDS011;52992;52.084;5.412;2023-08-30T00:18:58;8.93;;;6.50;;
66189;SDS011;52992;52.084;5.412;2023-08-30T00:21:25;11.03;;;7.03;;
66189;SDS011;52992;52.084;5.412;2023-08-30T00:23:53;9.77;;;6.70;;
66189;SDS011;52992;52.084;5.412;2023-08-30T00:26:20;9.07;;;6.43;;
66189;SDS011;52992;52.084;5.412;2023-08-30T00:28:47;9.07;;;6.90;;
66189;SDS011;52992;52.084;5.412;2023-08-30T00:31:14;10.20;;;7.37;;
66189;SDS011;52992;52.084;5.412;2023-08-30T00:33:41;10.67;;;6.43;;
66189;SDS011;52992;52.084;5.412;2023-08-30T00:36:11;9.07;;;6.77;;
66189;SDS011;52992;52.084;5.412;2023-08-30T00:38:37;8.27;;;6.33;;
66189;SDS011;52992;52.084;5.412;2023-08-30T00:41:04;10.43;;;7.50;;
66189;SDS011;52992;52.084;5.412;2023-08-30T00:43:31;11.23;;;7.33;;
66189;SDS011;52992;52.084;5.412;2023-08-30T00:45:59;9.27;;;6.93;;
66189;SDS011;52992;52.084;5.412;2023-08-30T00:48:26;9.70;;;6.73;;
66189;SDS011;52992;52.084;5.412;2023-08-30T00:50:53;10.67;;;7.43;;
66189;SDS011;52992;52.084;5.412;2023-08-30T00:53:20;10.67;;;7.47;;
66189;SDS011;52992;52.084;5.412;2023-08-30T00:55:47;9.47;;;6.90;;
66189;SDS011;52992;52.084;5.412;2023-08-30T00:58:14;10.43;;;7.50;;
66189;SDS011;52992;52.084;5.412;2023-08-30T01:00:41;11.57;;;8.20;;
66189;SDS011;52992;52.084;5.412;2023-08-30T01:03:09;10.13;;;6.83;;
66189;SDS011;52992;52.084;5.412;2023-08-30T01:05:36;9.43;;;6.93;;
66189;SDS011;52992;52.084;5.412;2023-08-30T01:08:03;8.30;;;6.53;;
66189;SDS011;52992;52.084;5.412;2023-08-30T01:13:40;10.53;;;6.57;;
66189;SDS011;52992;52.084;5.412;2023-08-30T01:16:28;7.93;;;6.43;;
66189;SDS011;52992;52.084;5.412;2023-08-30T01:18:56;9.30;;;6.03;;
66189;SDS011;52992;52.084;5.412;2023-08-30T01:21:41;9.97;;;6.30;;
66189;SDS011;52992;52.084;5.412;2023-08-30T01:24:23;9.03;;;6.80;;
66189;SDS011;52992;52.084;5.412;2023-08-30T01:27:08;9.50;;;6.53;;
66189;SDS011;52992;52.084;5.412;2023-08-30T01:29:36;12.37;;;6.93;;
66189;SDS011;52992;52.084;5.412;2023-08-30T01:32:05;9.73;;;7.07;;
66189;SDS011;52992;52.084;5.412;2023-08-30T01:34:35;9.57;;;6.50;;
66189;SDS011;52992;52.084;5.412;2023-08-30T01:37:08;9.57;;;6.87;;
66189;SDS011;52992;52.084;5.412;2023-08-30T01:39:36;9.07;;;6.37;;
66189;SDS011;52992;52.084;5.412;2023-08-30T01:42:04;11.13;;;6.90;;
66189;SDS011;52992;52.084;5.412;2023-08-30T01:44:32;9.53;;;6.23;;
66189;SDS011;52992;52.084;5.412;2023-08-30T01:47:00;10.07;;;7.23;;
66189;SDS011;52992;52.084;5.412;2023-08-30T01:49:29;10.17;;;6.53;;
66189;SDS011;52992;52.084;5.412;2023-08-30T01:52:00;11.80;;;7.07;;
66189;SDS011;52992;52.084;5.412;2023-08-30T01:54:28;8.80;;;6.27;;
66189;SDS011;52992;52.084;5.412;2023-08-30T01:56:56;9.03;;;6.67;;
66189;SDS011;52992;52.084;5.412;2023-08-30T01:59:24;9.40;;;6.57;;
66189;SDS011;52992;52.084;5.412;2023-08-30T02:01:51;9.87;;;6.83;;
66189;SDS011;52992;52.084;5.412;2023-08-30T02:04:18;9.50;;;6.70;;
66189;SDS011;52992;52.084;5.412;2023-08-30T02:06:47;9.27;;;6.80;;
66189;SDS011;52992;52.084;5.412;2023-08-30T02:09:28;8.50;;;6.40;;
66189;SDS011;52992;52.084;5.412;2023-08-30T02:12:03;9.97;;;6.47;;
66189;SDS011;52992;52.084;5.412;2023-08-30T02:14:33;10.93;;;6.77;;
66189;SDS011;52992;52.084;5.412;2023-08-30T02:17:01;11.23;;;7.50;;
66189;SDS011;52992;52.084;5.412;2023-08-30T02:19:29;10.53;;;6.90;;
66189;SDS011;52992;52.084;5.412;2023-08-30T02:21:56;8.27;;;6.57;;
66189;SDS011;52992;52.084;5.412;2023-08-30T02:24:23;12.23;;;7.83;;
66189;SDS011;52992;52.084;5.412;2023-08-30T02:26:50;10.33;;;7.17;;
66189;SDS011;52992;52.084;5.412;2023-08-30T02:29:17;9.87;;;7.77;;
66189;SDS011;52992;52.084;5.412;2023-08-30T02:31:43;10.47;;;7.53;;
66189;SDS011;52992;52.084;5.412;2023-08-30T02:34:10;10.37;;;7.10;;
66189;SDS011;52992;52.084;5.412;2023-08-30T02:36:37;12.70;;;8.37;;
66189;SDS011;52992;52.084;5.412;2023-08-30T02:39:04;12.03;;;7.43;;
66189;SDS011;52992;52.084;5.412;2023-08-30T02:41:31;11.73;;;7.20;;
66189;SDS011;52992;52.084;5.412;2023-08-30T02:43:58;11.33;;;8.07;;
66189;SDS011;52992;52.084;5.412;2023-08-30T02:46:25;11.87;;;8.37;;
66189;SDS011;52992;52.084;5.412;2023-08-30T02:48:52;12.33;;;7.97;;
66189;SDS011;52992;52.084;5.412;2023-08-30T02:51:19;14.97;;;8.50;;
66189;SDS011;52992;52.084;5.412;2023-08-30T02:53:46;11.03;;;7.43;;
66189;SDS011;52992;52.084;5.412;2023-08-30T02:56:13;12.03;;;7.93;;
66189;SDS011;52992;52.084;5.412;2023-08-30T02:58:40;12.27;;;8.60;;
66189;SDS011;52992;52.084;5.412;2023-08-30T03:01:07;12.43;;;8.37;;
66189;SDS011;52992;52.084;5.412;2023-08-30T03:03:35;12.80;;;8.03;;
66189;SDS011;52992;52.084;5.412;2023-08-30T03:06:01;11.20;;;7.90;;
66189;SDS011;52992;52.084;5.412;2023-08-30T03:08:31;11.03;;;8.00;;
66189;SDS011;52992;52.084;5.412;2023-08-30T03:11:09;12.80;;;8.20;;
66189;SDS011;52992;52.084;5.412;2023-08-30T03:13:49;12.97;;;8.53;;
66189;SDS011;52992;52.084;5.412;2023-08-30T03:16:16;13.63;;;8.20;;
66189;SDS011;52992;52.084;5.412;2023-08-30T03:18:43;13.47;;;8.40;;
66189;SDS011;52992;52.084;5.412;2023-08-30T03:21:11;14.77;;;8.53;;
66189;SDS011;52992;52.084;5.412;2023-08-30T03:23:38;16.10;;;8.60;;
66189;SDS011;52992;52.084;5.412;2023-08-30T03:26:15;14.63;;;8.70;;
66189;SDS011;52992;52.084;5.412;2023-08-30T03:28:42;13.90;;;8.23;;
66189;SDS011;52992;52.084;5.412;2023-08-30T03:31:12;13.70;;;8.57;;
66189;SDS011;52992;52.084;5.412;2023-08-30T03:33:44;14.73;;;8.80;;
66189;SDS011;52992;52.084;5.412;2023-08-30T03:36:13;11.30;;;7.77;;
66189;SDS011;52992;52.084;5.412;2023-08-30T03:38:41;13.50;;;8.17;;
66189;SDS011;52992;52.084;5.412;2023-08-30T03:41:10;12.90;;;8.50;;
66189;SDS011;52992;52.084;5.412;2023-08-30T03:43:38;14.00;;;8.50;;
66189;SDS011;52992;52.084;5.412;2023-08-30T03:46:07;13.67;;;8.00;;
66189;SDS011;52992;52.084;5.412;2023-08-30T03:48:36;11.87;;;7.67;;
66189;SDS011;52992;52.084;5.412;2023-08-30T03:51:03;12.43;;;8.17;;
66189;SDS011;52992;52.084;5.412;2023-08-30T03:53:31;14.00;;;8.10;;
66189;SDS011;52992;52.084;5.412;2023-08-30T03:55:58;12.97;;;8.13;;
66189;SDS011;52992;52.084;5.412;2023-08-30T03:58:25;14.73;;;8.90;;
66189;SDS011;52992;52.084;5.412;2023-08-30T04:00:52;14.67;;;8.47;;
66189;SDS011;52992;52.084;5.412;2023-08-30T04:03:19;11.87;;;7.27;;
66189;SDS011;52992;52.084;5.412;2023-08-30T04:05:46;14.43;;;8.43;;
66189;SDS011;52992;52.084;5.412;2023-08-30T04:08:13;13.17;;;8.10;;
66189;SDS011;52992;52.084;5.412;2023-08-30T04:10:41;12.23;;;8.30;;
66189;SDS011;52992;52.084;5.412;2023-08-30T04:13:08;12.23;;;8.00;;
66189;SDS011;52992;52.084;5.412;2023-08-30T04:15:37;11.07;;;7.60;;
66189;SDS011;52992;52.084;5.412;2023-08-30T04:18:06;14.13;;;8.80;;
66189;SDS011;52992;52.084;5.412;2023-08-30T04:20:34;12.07;;;7.97;;
66189;SDS011;52992;52.084;5.412;2023-08-30T04:23:01;12.80;;;8.43;;
66189;SDS011;52992;52.084;5.412;2023-08-30T04:25:30;12.00;;;7.77;;
66189;SDS011;52992;52.084;5.412;2023-08-30T04:27:57;11.80;;;7.17;;
66189;SDS011;52992;52.084;5.412;2023-08-30T04:30:25;12.33;;;7.70;;
66189;SDS011;52992;52.084;5.412;2023-08-30T04:32:51;12.73;;;8.43;;
66189;SDS011;52992;52.084;5.412;2023-08-30T04:35:18;14.27;;;8.43;;
66189;SDS011;52992;52.084;5.412;2023-08-30T04:37:45;12.37;;;7.60;;
66189;SDS011;52992;52.084;5.412;2023-08-30T04:40:13;14.27;;;7.77;;
66189;SDS011;52992;52.084;5.412;2023-08-30T04:42:40;13.07;;;7.50;;
66189;SDS011;52992;52.084;5.412;2023-08-30T04:45:08;14.17;;;8.33;;
66189;SDS011;52992;52.084;5.412;2023-08-30T04:47:36;10.47;;;7.27;;
66189;SDS011;52992;52.084;5.412;2023-08-30T04:50:04;10.53;;;7.23;;
66189;SDS011;52992;52.084;5.412;2023-08-30T04:52:32;12.17;;;7.80;;
66189;SDS011;52992;52.084;5.412;2023-08-30T04:54:59;13.30;;;7.67;;
66189;SDS011;52992;52.084;5.412;2023-08-30T04:57:27;11.43;;;7.30;;
66189;SDS011;52992;52.084;5.412;2023-08-30T04:59:54;12.23;;;8.00;;
66189;SDS011;52992;52.084;5.412;2023-08-30T05:02:21;11.90;;;8.47;;
66189;SDS011;52992;52.084;5.412;2023-08-30T05:05:00;12.67;;;7.87;;
66189;SDS011;52992;52.084;5.412;2023-08-30T05:07:27;13.63;;;8.43;;
66189;SDS011;52992;52.084;5.412;2023-08-30T05:09:55;16.70;;;8.90;;
66189;SDS011;52992;52.084;5.412;2023-08-30T05:12:22;13.53;;;8.07;;
66189;SDS011;52992;52.084;5.412;2023-08-30T05:14:49;14.87;;;9.73;;
66189;SDS011;52992;52.084;5.412;2023-08-30T05:17:16;15.33;;;9.10;;
66189;SDS011;52992;52.084;5.412;2023-08-30T05:19:44;13.67;;;8.43;;
66189;SDS011;52992;52.084;5.412;2023-08-30T05:22:10;13.70;;;8.63;;
66189;SDS011;52992;52.084;5.412;2023-08-30T05:24:38;12.37;;;7.93;;
66189;SDS011;52992;52.084;5.412;2023-08-30T05:27:05;14.60;;;8.90;;
66189;SDS011;52992;52.084;5.412;2023-08-30T05:29:38;11.97;;;8.63;;
66189;SDS011;52992;52.084;5.412;2023-08-30T05:32:05;12.77;;;8.40;;
66189;SDS011;52992;52.084;5.412;2023-08-30T05:34:35;13.10;;;8.10;;
66189;SDS011;52992;52.084;5.412;2023-08-30T05:37:18;12.10;;;8.00;;
66189;SDS011;52992;52.084;5.412;2023-08-30T05:39:58;12.57;;;8.40;;
66189;SDS011;52992;52.084;5.412;2023-08-30T05:42:24;13.80;;;8.73;;
66189;SDS011;52992;52.084;5.412;2023-08-30T05:44:52;14.83;;;9.47;;
66189;SDS011;52992;52.084;5.412;2023-08-30T05:47:20;14.43;;;8.93;;
66189;SDS011;52992;52.084;5.412;2023-08-30T05:49:47;17.27;;;9.17;;
66189;SDS011;52992;52.084;5.412;2023-08-30T05:52:14;14.83;;;9.03;;
66189;SDS011;52992;52.084;5.412;2023-08-30T05:54:42;17.00;;;8.83;;
66189;SDS011;52992;52.084;5.412;2023-08-30T05:57:09;12.93;;;8.67;;
66189;SDS011;52992;52.084;5.412;2023-08-30T05:59:36;13.30;;;8.70;;
66189;SDS011;52992;52.084;5.412;2023-08-30T06:02:03;13.77;;;8.70;;
66189;SDS011;52992;52.084;5.412;2023-08-30T06:04:31;13.57;;;8.47;;
66189;SDS011;52992;52.084;5.412;2023-08-30T06:06:58;11.73;;;8.23;;
66189;SDS011;52992;52.084;5.412;2023-08-30T06:09:24;16.73;;;9.27;;
66189;SDS011;52992;52.084;5.412;2023-08-30T06:11:51;14.57;;;9.23;;
66189;SDS011;52992;52.084;5.412;2023-08-30T06:14:18;15.83;;;9.63;;
66189;SDS011;52992;52.084;5.412;2023-08-30T06:16:45;13.43;;;8.27;;
66189;SDS011;52992;52.084;5.412;2023-08-30T06:19:12;13.40;;;8.30;;
66189;SDS011;52992;52.084;5.412;2023-08-30T06:21:40;12.60;;;8.33;;
66189;SDS011;52992;52.084;5.412;2023-08-30T06:24:07;15.43;;;8.30;;
66189;SDS011;52992;52.084;5.412;2023-08-30T06:26:34;12.20;;;8.27;;
66189;SDS011;52992;52.084;5.412;2023-08-30T06:29:01;15.30;;;9.47;;
66189;SDS011;52992;52.084;5.412;2023-08-30T06:31:31;13.90;;;8.60;;
66189;SDS011;52992;52.084;5.412;2023-08-30T06:33:59;14.53;;;8.40;;
66189;SDS011;52992;52.084;5.412;2023-08-30T06:36:26;15.33;;;8.60;;
66189;SDS011;52992;52.084;5.412;2023-08-30T06:38:53;17.67;;;8.20;;
66189;SDS011;52992;52.084;5.412;2023-08-30T06:41:19;12.50;;;8.17;;
66189;SDS011;52992;52.084;5.412;2023-08-30T06:43:46;13.57;;;8.70;;
66189;SDS011;52992;52.084;5.412;2023-08-30T06:46:13;15.73;;;8.97;;
66189;SDS011;52992;52.084;5.412;2023-08-30T06:48:40;15.90;;;8.87;;
66189;SDS011;52992;52.084;5.412;2023-08-30T06:51:07;14.87;;;8.57;;
66189;SDS011;52992;52.084;5.412;2023-08-30T06:53:34;14.93;;;8.63;;
66189;SDS011;52992;52.084;5.412;2023-08-30T06:56:01;15.57;;;8.83;;
66189;SDS011;52992;52.084;5.412;2023-08-30T06:58:28;14.43;;;8.37;;
66189;SDS011;52992;52.084;5.412;2023-08-30T07:00:56;12.37;;;7.90;;
66189;SDS011;52992;52.084;5.412;2023-08-30T07:03:24;14.07;;;8.33;;
66189;SDS011;52992;52.084;5.412;2023-08-30T07:05:51;11.60;;;7.83;;
66189;SDS011;52992;52.084;5.412;2023-08-30T07:08:18;14.43;;;8.40;;
66189;SDS011;52992;52.084;5.412;2023-08-30T07:10:45;15.60;;;8.67;;
66189;SDS011;52992;52.084;5.412;2023-08-30T07:13:12;15.53;;;9.07;;
66189;SDS011;52992;52.084;5.412;2023-08-30T07:15:40;11.63;;;7.97;;
66189;SDS011;52992;52.084;5.412;2023-08-30T07:18:08;17.03;;;9.20;;
66189;SDS011;52992;52.084;5.412;2023-08-30T07:20:38;11.53;;;8.17;;
66189;SDS011;52992;52.084;5.412;2023-08-30T07:23:05;14.93;;;8.27;;
66189;SDS011;52992;52.084;5.412;2023-08-30T07:25:36;13.83;;;8.23;;
66189;SDS011;52992;52.084;5.412;2023-08-30T07:28:04;14.27;;;8.83;;
66189;SDS011;52992;52.084;5.412;2023-08-30T07:30:33;13.90;;;8.83;;
66189;SDS011;52992;52.084;5.412;2023-08-30T07:33:01;14.93;;;9.33;;
66189;SDS011;52992;52.084;5.412;2023-08-30T07:35:33;16.10;;;9.13;;
66189;SDS011;52992;52.084;5.412;2023-08-30T07:38:00;14.17;;;8.73;;
66189;SDS011;52992;52.084;5.412;2023-08-30T07:40:26;16.70;;;9.37;;
66189;SDS011;52992;52.084;5.412;2023-08-30T07:42:55;12.43;;;8.67;;
66189;SDS011;52992;52.084;5.412;2023-08-30T07:45:25;16.03;;;8.27;;
66189;SDS011;52992;52.084;5.412;2023-08-30T07:47:52;11.20;;;7.93;;
66189;SDS011;52992;52.084;5.412;2023-08-30T07:50:19;12.47;;;7.97;;
66189;SDS011;52992;52.084;5.412;2023-08-30T07:52:46;13.53;;;8.63;;
66189;SDS011;52992;52.084;5.412;2023-08-30T07:55:13;17.43;;;9.10;;
66189;SDS011;52992;52.084;5.412;2023-08-30T07:57:41;12.97;;;8.50;;
66189;SDS011;52992;52.084;5.412;2023-08-30T08:00:08;13.40;;;8.50;;
66189;SDS011;52992;52.084;5.412;2023-08-30T08:02:39;12.30;;;8.47;;
66189;SDS011;52992;52.084;5.412;2023-08-30T08:05:07;15.20;;;8.00;;
66189;SDS011;52992;52.084;5.412;2023-08-30T08:07:37;14.10;;;8.30;;
66189;SDS011;52992;52.084;5.412;2023-08-30T08:10:05;13.23;;;7.67;;
66189;SDS011;52992;52.084;5.412;2023-08-30T08:12:33;16.37;;;8.30;;
66189;SDS011;52992;52.084;5.412;2023-08-30T08:15:01;13.23;;;7.47;;
66189;SDS011;52992;52.084;5.412;2023-08-30T08:17:28;13.83;;;7.90;;
66189;SDS011;52992;52.084;5.412;2023-08-30T08:19:55;15.90;;;7.53;;
66189;SDS011;52992;52.084;5.412;2023-08-30T08:22:22;13.50;;;8.30;;
66189;SDS011;52992;52.084;5.412;2023-08-30T08:24:49;12.47;;;7.73;;
66189;SDS011;52992;52.084;5.412;2023-08-30T08:27:17;12.07;;;7.33;;
66189;SDS011;52992;52.084;5.412;2023-08-30T08:29:45;11.57;;;7.73;;
66189;SDS011;52992;52.084;5.412;2023-08-30T08:32:11;14.80;;;8.10;;
66189;SDS011;52992;52.084;5.412;2023-08-30T08:34:39;15.97;;;8.63;;
66189;SDS011;52992;52.084;5.412;2023-08-30T08:37:06;12.73;;;8.13;;
66189;SDS011;52992;52.084;5.412;2023-08-30T08:39:33;12.60;;;7.93;;
66189;SDS011;52992;52.084;5.412;2023-08-30T08:42:00;15.73;;;7.67;;
66189;SDS011;52992;52.084;5.412;2023-08-30T08:44:31;13.43;;;7.63;;
66189;SDS011;52992;52.084;5.412;2023-08-30T08:46:58;12.43;;;7.63;;
66189;SDS011;52992;52.084;5.412;2023-08-30T08:49:26;12.50;;;8.07;;
66189;SDS011;52992;52.084;5.412;2023-08-30T08:51:55;17.97;;;7.60;;
66189;SDS011;52992;52.084;5.412;2023-08-30T08:54:22;15.13;;;8.03;;
66189;SDS011;52992;52.084;5.412;2023-08-30T08:56:49;12.70;;;7.80;;
66189;SDS011;52992;52.084;5.412;2023-08-30T08:59:16;13.20;;;8.07;;
66189;SDS011;52992;52.084;5.412;2023-08-30T09:01:45;14.07;;;7.77;;
66189;SDS011;52992;52.084;5.412;2023-08-30T09:04:12;14.30;;;7.57;;
66189;SDS011;52992;52.084;5.412;2023-08-30T09:06:39;9.93;;;7.57;;
66189;SDS011;52992;52.084;5.412;2023-08-30T09:09:07;13.33;;;8.50;;
66189;SDS011;52992;52.084;5.412;2023-08-30T09:11:35;13.67;;;7.80;;
66189;SDS011;52992;52.084;5.412;2023-08-30T09:14:16;13.27;;;7.30;;
66189;SDS011;52992;52.084;5.412;2023-08-30T09:16:56;13.27;;;7.70;;
66189;SDS011;52992;52.084;5.412;2023-08-30T09:19:24;18.83;;;8.53;;
66189;SDS011;52992;52.084;5.412;2023-08-30T09:21:55;15.40;;;7.63;;
66189;SDS011;52992;52.084;5.412;2023-08-30T09:24:26;12.47;;;7.77;;
66189;SDS011;52992;52.084;5.412;2023-08-30T09:27:03;15.83;;;8.57;;
66189;SDS011;52992;52.084;5.412;2023-08-30T09:29:30;13.87;;;7.93;;
66189;SDS011;52992;52.084;5.412;2023-08-30T09:31:58;14.53;;;8.03;;
66189;SDS011;52992;52.084;5.412;2023-08-30T09:34:25;12.37;;;7.60;;
66189;SDS011;52992;52.084;5.412;2023-08-30T09:36:52;14.67;;;8.30;;
66189;SDS011;52992;52.084;5.412;2023-08-30T09:39:20;12.17;;;8.07;;
66189;SDS011;52992;52.084;5.412;2023-08-30T09:41:48;10.83;;;7.27;;
66189;SDS011;52992;52.084;5.412;2023-08-30T09:44:17;14.07;;;8.30;;
66189;SDS011;52992;52.084;5.412;2023-08-30T09:46:46;14.40;;;8.17;;
66189;SDS011;52992;52.084;5.412;2023-08-30T09:49:19;14.33;;;8.13;;
66189;SDS011;52992;52.084;5.412;2023-08-30T09:51:48;16.83;;;8.87;;
66189;SDS011;52992;52.084;5.412;2023-08-30T09:54:17;17.20;;;9.00;;
66189;SDS011;52992;52.084;5.412;2023-08-30T09:57:04;13.93;;;8.17;;
66189;SDS011;52992;52.084;5.412;2023-08-30T09:59:31;17.30;;;9.10;;
66189;SDS011;52992;52.084;5.412;2023-08-30T10:01:59;15.23;;;9.23;;
66189;SDS011;52992;52.084;5.412;2023-08-30T10:04:27;21.03;;;9.57;;
66189;SDS011;52992;52.084;5.412;2023-08-30T10:06:56;17.03;;;10.03;;
66189;SDS011;52992;52.084;5.412;2023-08-30T10:09:26;19.97;;;11.37;;
66189;SDS011;52992;52.084;5.412;2023-08-30T10:11:57;17.13;;;10.20;;
66189;SDS011;52992;52.084;5.412;2023-08-30T10:14:24;17.17;;;10.43;;
66189;SDS011;52992;52.084;5.412;2023-08-30T10:16:51;19.73;;;10.47;;
66189;SDS011;52992;52.084;5.412;2023-08-30T10:19:27;18.20;;;11.37;;
66189;SDS011;52992;52.084;5.412;2023-08-30T10:22:01;19.00;;;11.97;;
66189;SDS011;52992;52.084;5.412;2023-08-30T10:24:39;18.93;;;11.20;;
66189;SDS011;52992;52.084;5.412;2023-08-30T10:27:22;17.77;;;11.57;;
66189;SDS011;52992;52.084;5.412;2023-08-30T10:29:51;17.83;;;10.90;;
66189;SDS011;52992;52.084;5.412;2023-08-30T10:32:21;18.97;;;10.43;;
66189;SDS011;52992;52.084;5.412;2023-08-30T10:34:49;20.77;;;12.80;;
66189;SDS011;52992;52.084;5.412;2023-08-30T10:37:22;22.53;;;12.07;;
66189;SDS011;52992;52.084;5.412;2023-08-30T10:39:50;19.13;;;11.90;;
66189;SDS011;52992;52.084;5.412;2023-08-30T10:42:21;19.03;;;12.33;;
66189;SDS011;52992;52.084;5.412;2023-08-30T10:44:49;19.70;;;12.20;;
66189;SDS011;52992;52.084;5.412;2023-08-30T10:47:39;19.90;;;11.87;;
66189;SDS011;52992;52.084;5.412;2023-08-30T10:50:07;14.80;;;10.33;;
66189;SDS011;52992;52.084;5.412;2023-08-30T10:52:39;15.53;;;9.87;;
66189;SDS011;52992;52.084;5.412;2023-08-30T10:55:10;13.60;;;10.23;;
66189;SDS011;52992;52.084;5.412;2023-08-30T10:57:42;15.43;;;10.03;;
66189;SDS011;52992;52.084;5.412;2023-08-30T11:00:12;11.40;;;8.27;;
66189;SDS011;52992;52.084;5.412;2023-08-30T11:02:48;13.50;;;8.77;;
66189;SDS011;52992;52.084;5.412;2023-08-30T11:05:16;9.53;;;7.20;;
66189;SDS011;52992;52.084;5.412;2023-08-30T11:07:45;10.20;;;6.77;;
66189;SDS011;52992;52.084;5.412;2023-08-30T11:10:13;8.40;;;6.20;;
66189;SDS011;52992;52.084;5.412;2023-08-30T11:12:41;9.90;;;6.23;;
66189;SDS011;52992;52.084;5.412;2023-08-30T11:15:09;8.47;;;4.90;;
66189;SDS011;52992;52.084;5.412;2023-08-30T11:17:37;8.10;;;4.50;;
66189;SDS011;52992;52.084;5.412;2023-08-30T11:20:08;5.97;;;3.97;;
66189;SDS011;52992;52.084;5.412;2023-08-30T11:22:41;5.33;;;4.00;;
66189;SDS011;52992;52.084;5.412;2023-08-30T11:25:10;6.93;;;3.60;;
66189;SDS011;52992;52.084;5.412;2023-08-30T11:27:39;6.53;;;3.50;;
66189;SDS011;52992;52.084;5.412;2023-08-30T11:30:06;5.70;;;3.80;;
66189;SDS011;52992;52.084;5.412;2023-08-30T11:32:39;7.13;;;3.53;;
66189;SDS011;52992;52.084;5.412;2023-08-30T11:35:09;5.57;;;3.40;;
66189;SDS011;52992;52.084;5.412;2023-08-30T11:37:36;4.93;;;3.27;;
66189;SDS011;52992;52.084;5.412;2023-08-30T11:40:03;8.83;;;3.77;;
66189;SDS011;52992;52.084;5.412;2023-08-30T11:42:32;9.83;;;3.97;;
66189;SDS011;52992;52.084;5.412;2023-08-30T11:45:00;7.07;;;4.40;;
66189;SDS011;52992;52.084;5.412;2023-08-30T11:47:27;6.47;;;3.83;;
66189;SDS011;52992;52.084;5.412;2023-08-30T11:49:55;6.90;;;4.13;;
66189;SDS011;52992;52.084;5.412;2023-08-30T11:52:23;8.57;;;3.90;;
66189;SDS011;52992;52.084;5.412;2023-08-30T11:54:52;7.07;;;3.20;;
66189;SDS011;52992;52.084;5.412;2023-08-30T11:57:19;8.90;;;3.47;;
66189;SDS011;52992;52.084;5.412;2023-08-30T11:59:47;5.13;;;3.60;;
66189;SDS011;52992;52.084;5.412;2023-08-30T12:02:16;4.87;;;3.37;;
66189;SDS011;52992;52.084;5.412;2023-08-30T12:04:45;6.57;;;3.67;;
66189;SDS011;52992;52.084;5.412;2023-08-30T12:07:22;6.13;;;3.57;;
66189;SDS011;52992;52.084;5.412;2023-08-30T12:09:50;5.47;;;3.60;;
66189;SDS011;52992;52.084;5.412;2023-08-30T12:12:17;7.37;;;3.57;;
66189;SDS011;52992;52.084;5.412;2023-08-30T12:14:44;7.10;;;3.50;;
66189;SDS011;52992;52.084;5.412;2023-08-30T12:17:11;6.37;;;3.07;;
66189;SDS011;52992;52.084;5.412;2023-08-30T12:19:39;6.20;;;3.13;;
66189;SDS011;52992;52.084;5.412;2023-08-30T12:22:09;7.00;;;3.00;;
66189;SDS011;52992;52.084;5.412;2023-08-30T12:24:42;6.67;;;3.37;;
66189;SDS011;52992;52.084;5.412;2023-08-30T12:27:10;10.17;;;4.30;;
66189;SDS011;52992;52.084;5.412;2023-08-30T12:29:37;7.20;;;3.10;;
66189;SDS011;52992;52.084;5.412;2023-08-30T12:32:04;8.13;;;3.37;;
66189;SDS011;52992;52.084;5.412;2023-08-30T12:34:32;7.37;;;3.33;;
66189;SDS011;52992;52.084;5.412;2023-08-30T12:36:59;7.37;;;2.63;;
66189;SDS011;52992;52.084;5.412;2023-08-30T12:39:30;10.27;;;3.07;;
66189;SDS011;52992;52.084;5.412;2023-08-30T12:41:57;8.30;;;3.00;;
66189;SDS011;52992;52.084;5.412;2023-08-30T12:44:24;8.93;;;3.23;;
66189;SDS011;52992;52.084;5.412;2023-08-30T12:46:51;3.77;;;2.30;;
66189;SDS011;52992;52.084;5.412;2023-08-30T12:49:17;4.90;;;2.20;;
66189;SDS011;52992;52.084;5.412;2023-08-30T12:51:44;8.93;;;2.30;;
66189;SDS011;52992;52.084;5.412;2023-08-30T12:54:11;3.77;;;2.73;;
66189;SDS011;52992;52.084;5.412;2023-08-30T12:56:38;7.03;;;2.90;;
66189;SDS011;52992;52.084;5.412;2023-08-30T12:59:05;4.30;;;2.70;;
66189;SDS011;52992;52.084;5.412;2023-08-30T13:01:32;7.87;;;2.80;;
66189;SDS011;52992;52.084;5.412;2023-08-30T13:03:59;3.43;;;2.07;;
66189;SDS011;52992;52.084;5.412;2023-08-30T13:06:26;2.93;;;2.10;;
66189;SDS011;52992;52.084;5.412;2023-08-30T13:08:53;6.53;;;2.10;;
66189;SDS011;52992;52.084;5.412;2023-08-30T13:11:20;2.83;;;1.90;;
66189;SDS011;52992;52.084;5.412;2023-08-30T13:13:47;3.43;;;1.83;;
66189;SDS011;52992;52.084;5.412;2023-08-30T13:16:14;7.33;;;2.37;;
66189;SDS011;52992;52.084;5.412;2023-08-30T13:18:40;3.10;;;2.20;;
66189;SDS011;52992;52.084;5.412;2023-08-30T13:21:07;5.30;;;3.37;;
66189;SDS011;52992;52.084;5.412;2023-08-30T13:23:36;9.17;;;2.43;;
66189;SDS011;52992;52.084;5.412;2023-08-30T13:26:03;3.77;;;2.10;;
66189;SDS011;52992;52.084;5.412;2023-08-30T13:28:30;4.43;;;2.40;;
66189;SDS011;52992;52.084;5.412;2023-08-30T13:30:57;5.07;;;2.57;;
66189;SDS011;52992;52.084;5.412;2023-08-30T13:33:26;3.50;;;2.53;;
66189;SDS011;52992;52.084;5.412;2023-08-30T13:35:53;3.60;;;2.43;;
66189;SDS011;52992;52.084;5.412;2023-08-30T13:38:20;6.93;;;2.73;;
66189;SDS011;52992;52.084;5.412;2023-08-30T13:40:49;5.67;;;2.60;;
66189;SDS011;52992;52.084;5.412;2023-08-30T13:43:16;8.33;;;2.73;;
66189;SDS011;52992;52.084;5.412;2023-08-30T13:45:43;7.90;;;3.10;;
66189;SDS011;52992;52.084;5.412;2023-08-30T13:48:14;6.77;;;2.70;;
66189;SDS011;52992;52.084;5.412;2023-08-30T13:50:41;5.87;;;3.10;;
66189;SDS011;52992;52.084;5.412;2023-08-30T13:53:08;4.53;;;2.33;;
66189;SDS011;52992;52.084;5.412;2023-08-30T13:55:36;5.77;;;2.80;;
66189;SDS011;52992;52.084;5.412;2023-08-30T13:58:03;5.57;;;2.30;;
66189;SDS011;52992;52.084;5.412;2023-08-30T14:00:29;4.97;;;2.10;;
66189;SDS011;52992;52.084;5.412;2023-08-30T14:02:56;3.80;;;2.20;;
66189;SDS011;52992;52.084;5.412;2023-08-30T14:05:23;3.43;;;2.30;;
66189;SDS011;52992;52.084;5.412;2023-08-30T14:07:50;5.37;;;2.90;;
66189;SDS011;52992;52.084;5.412;2023-08-30T14:10:17;3.20;;;2.17;;
66189;SDS011;52992;52.084;5.412;2023-08-30T14:12:46;2.60;;;1.77;;
66189;SDS011;52992;52.084;5.412;2023-08-30T14:15:13;4.57;;;2.10;;
66189;SDS011;52992;52.084;5.412;2023-08-30T14:17:41;3.10;;;2.00;;
66189;SDS011;52992;52.084;5.412;2023-08-30T14:20:08;4.23;;;2.20;;
66189;SDS011;52992;52.084;5.412;2023-08-30T14:22:36;2.80;;;2.00;;
66189;SDS011;52992;52.084;5.412;2023-08-30T14:25:03;3.13;;;2.37;;
66189;SDS011;52992;52.084;5.412;2023-08-30T14:27:38;2.33;;;2.13;;
66189;SDS011;52992;52.084;5.412;2023-08-30T14:30:06;4.00;;;2.23;;
66189;SDS011;52992;52.084;5.412;2023-08-30T14:32:33;5.23;;;2.60;;
66189;SDS011;52992;52.084;5.412;2023-08-30T14:35:02;3.33;;;2.27;;
66189;SDS011;52992;52.084;5.412;2023-08-30T14:37:30;6.40;;;2.70;;
66189;SDS011;52992;52.084;5.412;2023-08-30T14:39:57;3.30;;;2.47;;
66189;SDS011;52992;52.084;5.412;2023-08-30T14:42:24;4.77;;;2.60;;
66189;SDS011;52992;52.084;5.412;2023-08-30T14:44:52;4.57;;;2.77;;
66189;SDS011;52992;52.084;5.412;2023-08-30T14:47:19;4.30;;;2.43;;
66189;SDS011;52992;52.084;5.412;2023-08-30T14:49:47;6.20;;;2.37;;